sensor_id;sensor_type;location;lat;lon;timestamp;pressure;altitude;pressure_sealevel;temperature;humidity
38197;BME280;26543;51.976;4.616;2023-04-28T00:01:10;52762.22;;;-140.72;0.00
38197;BME280;26543;51.976;4.616;2023-04-28T00:03:36;52814.97;;;-140.72;0.00
38197;BME280;26543;51.976;4.616;2023-04-28T00:06:03;52768.28;;;-140.72;0.00
38197;BME280;26543;51.976;4.616;2023-04-28T00:08:28;52798.72;;;-140.72;0.00
38197;BME280;26543;51.976;4.616;2023-04-28T00:10:54;52766.25;;;-140.72;0.00
38197;BME280;26543;51.976;4.616;2023-04-28T00:13:19;52748.00;;;-140.72;0.00
38197;BME280;26543;51.976;4.616;2023-04-28T00:15:44;52796.72;;;-140.72;0.00
38197;BME280;26543;51.976;4.616;2023-04-28T00:18:10;52760.19;;;-140.72;0.00
38197;BME280;26543;51.976;4.616;2023-04-28T00:20:35;52804.81;;;-140.72;0.00
38197;BME280;26543;51.976;4.616;2023-04-28T00:23:00;52770.31;;;-140.72;0.00
38197;BME280;26543;51.976;4.616;2023-04-28T00:25:25;52776.41;;;-140.72;0.00
38197;BME280;26543;51.976;4.616;2023-04-28T00:27:51;52796.72;;;-140.72;0.00
38197;BME280;26543;51.976;4.616;2023-04-28T00:30:16;52768.28;;;-140.72;0.00
38197;BME280;26543;51.976;4.616;2023-04-28T00:32:41;52717.56;;;-140.72;0.00
38197;BME280;26543;51.976;4.616;2023-04-28T00:35:07;52768.28;;;-140.72;0.00
38197;BME280;26543;51.976;4.616;2023-04-28T00:37:34;52778.44;;;-140.72;0.00
38197;BME280;26543;51.976;4.616;2023-04-28T00:39:59;52776.41;;;-140.72;0.00
38197;BME280;26543;51.976;4.616;2023-04-28T00:42:25;52772.34;;;-140.72;0.00
38197;BME280;26543;51.976;4.616;2023-04-28T00:44:50;52752.06;;;-140.72;0.00
38197;BME280;26543;51.976;4.616;2023-04-28T00:47:16;52752.06;;;-140.72;0.00
38197;BME280;26543;51.976;4.616;2023-04-28T00:49:42;52750.03;;;-140.72;0.00
38197;BME280;26543;51.976;4.616;2023-04-28T00:52:07;52786.56;;;-140.72;0.00
38197;BME280;26543;51.976;4.616;2023-04-28T00:54:32;52776.41;;;-140.72;0.00
38197;BME280;26543;51.976;4.616;2023-04-28T00:57:01;52750.03;;;-140.72;0.00
38197;BME280;26543;51.976;4.616;2023-04-28T00:59:34;52768.28;;;-140.72;0.00
38197;BME280;26543;51.976;4.616;2023-04-28T01:01:59;52756.13;;;-140.72;0.00
38197;BME280;26543;51.976;4.616;2023-04-28T01:04:25;52766.25;;;-140.72;0.00
38197;BME280;26543;51.976;4.616;2023-04-28T01:06:51;52735.81;;;-140.72;0.00
38197;BME280;26543;51.976;4.616;2023-04-28T01:09:17;52786.56;;;-140.72;0.00
38197;BME280;26543;51.976;4.616;2023-04-28T01:11:42;52784.53;;;-140.72;0.00
38197;BME280;26543;51.976;4.616;2023-04-28T01:14:08;52788.59;;;-140.72;0.00
38197;BME280;26543;51.976;4.616;2023-04-28T01:16:33;52778.44;;;-140.72;0.00
38197;BME280;26543;51.976;4.616;2023-04-28T01:18:59;52784.53;;;-140.72;0.00
38197;BME280;26543;51.976;4.616;2023-04-28T01:21:25;52748.00;;;-140.72;0.00
38197;BME280;26543;51.976;4.616;2023-04-28T01:23:53;52758.16;;;-140.72;0.00
38197;BME280;26543;51.976;4.616;2023-04-28T01:26:18;52739.88;;;-140.72;0.00
38197;BME280;26543;51.976;4.616;2023-04-28T01:28:43;52748.00;;;-140.72;0.00
38197;BME280;26543;51.976;4.616;2023-04-28T01:31:08;52768.28;;;-140.72;0.00
38197;BME280;26543;51.976;4.616;2023-04-28T01:33:33;52800.75;;;-140.72;0.00
38197;BME280;26543;51.976;4.616;2023-04-28T01:36:00;52758.16;;;-140.72;0.00
38197;BME280;26543;51.976;4.616;2023-04-28T01:38:26;52804.81;;;-140.72;0.00
38197;BME280;26543;51.976;4.616;2023-04-28T01:40:52;52766.25;;;-140.72;0.00
38197;BME280;26543;51.976;4.616;2023-04-28T01:43:18;52752.06;;;-140.72;0.00
38197;BME280;26543;51.976;4.616;2023-04-28T01:45:43;52768.28;;;-140.72;0.00
38197;BME280;26543;51.976;4.616;2023-04-28T01:48:08;52743.94;;;-140.72;0.00
38197;BME280;26543;51.976;4.616;2023-04-28T01:50:33;52721.63;;;-140.72;0.00
38197;BME280;26543;51.976;4.616;2023-04-28T01:52:59;52737.84;;;-140.72;0.00
38197;BME280;26543;51.976;4.616;2023-04-28T01:55:24;52752.06;;;-140.72;0.00
38197;BME280;26543;51.976;4.616;2023-04-28T01:57:49;52762.22;;;-140.72;0.00
38197;BME280;26543;51.976;4.616;2023-04-28T02:00:15;52780.47;;;-140.72;0.00
38197;BME280;26543;51.976;4.616;2023-04-28T02:02:40;52790.63;;;-140.72;0.00
38197;BME280;26543;51.976;4.616;2023-04-28T02:05:05;52727.72;;;-140.72;0.00
38197;BME280;26543;51.976;4.616;2023-04-28T02:07:31;52735.81;;;-140.72;0.00
38197;BME280;26543;51.976;4.616;2023-04-28T02:09:56;52752.06;;;-140.72;0.00
38197;BME280;26543;51.976;4.616;2023-04-28T02:12:21;52782.50;;;-140.72;0.00
38197;BME280;26543;51.976;4.616;2023-04-28T02:14:47;52725.69;;;-140.72;0.00
38197;BME280;26543;51.976;4.616;2023-04-28T02:17:12;52770.31;;;-140.72;0.00
38197;BME280;26543;51.976;4.616;2023-04-28T02:19:37;52725.69;;;-140.72;0.00
38197;BME280;26543;51.976;4.616;2023-04-28T02:22:02;52758.16;;;-140.72;0.00
38197;BME280;26543;51.976;4.616;2023-04-28T02:24:28;52758.16;;;-140.72;0.00
38197;BME280;26543;51.976;4.616;2023-04-28T02:26:53;52782.50;;;-140.72;0.00
38197;BME280;26543;51.976;4.616;2023-04-28T02:29:18;52760.19;;;-140.72;0.00
38197;BME280;26543;51.976;4.616;2023-04-28T02:31:43;52750.03;;;-140.72;0.00
38197;BME280;26543;51.976;4.616;2023-04-28T02:34:09;52782.50;;;-140.72;0.00
38197;BME280;26543;51.976;4.616;2023-04-28T02:36:34;52806.84;;;-140.72;0.00
38197;BME280;26543;51.976;4.616;2023-04-28T02:38:59;52758.16;;;-140.72;0.00
38197;BME280;26543;51.976;4.616;2023-04-28T02:41:25;52790.63;;;-140.72;0.00
38197;BME280;26543;51.976;4.616;2023-04-28T02:43:50;52778.44;;;-140.72;0.00
38197;BME280;26543;51.976;4.616;2023-04-28T02:46:15;52762.22;;;-140.72;0.00
38197;BME280;26543;51.976;4.616;2023-04-28T02:48:41;52758.16;;;-140.72;0.00
38197;BME280;26543;51.976;4.616;2023-04-28T02:51:06;52733.78;;;-140.72;0.00
38197;BME280;26543;51.976;4.616;2023-04-28T02:53:31;52764.25;;;-140.72;0.00
38197;BME280;26543;51.976;4.616;2023-04-28T02:55:56;52780.47;;;-140.72;0.00
38197;BME280;26543;51.976;4.616;2023-04-28T02:58:22;52727.72;;;-140.72;0.00
38197;BME280;26543;51.976;4.616;2023-04-28T03:00:47;52780.47;;;-140.72;0.00
38197;BME280;26543;51.976;4.616;2023-04-28T03:03:12;52731.75;;;-140.72;0.00
38197;BME280;26543;51.976;4.616;2023-04-28T03:05:38;52784.53;;;-140.72;0.00
38197;BME280;26543;51.976;4.616;2023-04-28T03:08:03;52762.22;;;-140.72;0.00
38197;BME280;26543;51.976;4.616;2023-04-28T03:10:28;52762.22;;;-140.72;0.00
38197;BME280;26543;51.976;4.616;2023-04-28T03:12:53;52804.81;;;-140.72;0.00
38197;BME280;26543;51.976;4.616;2023-04-28T03:15:19;52780.47;;;-140.72;0.00
38197;BME280;26543;51.976;4.616;2023-04-28T03:17:44;52762.22;;;-140.72;0.00
38197;BME280;26543;51.976;4.616;2023-04-28T03:20:09;52776.41;;;-140.72;0.00
38197;BME280;26543;51.976;4.616;2023-04-28T03:22:35;52776.41;;;-140.72;0.00
38197;BME280;26543;51.976;4.616;2023-04-28T03:25:00;52721.63;;;-140.72;0.00
38197;BME280;26543;51.976;4.616;2023-04-28T03:27:25;52743.94;;;-140.72;0.00
38197;BME280;26543;51.976;4.616;2023-04-28T03:29:51;52739.88;;;-140.72;0.00
38197;BME280;26543;51.976;4.616;2023-04-28T03:32:16;52723.66;;;-140.72;0.00
38197;BME280;26543;51.976;4.616;2023-04-28T03:34:41;52727.72;;;-140.72;0.00
38197;BME280;26543;51.976;4.616;2023-04-28T03:37:07;52756.13;;;-140.72;0.00
38197;BME280;26543;51.976;4.616;2023-04-28T03:39:32;52778.44;;;-140.72;0.00
38197;BME280;26543;51.976;4.616;2023-04-28T03:41:57;52782.50;;;-140.72;0.00
38197;BME280;26543;51.976;4.616;2023-04-28T03:44:22;52766.25;;;-140.72;0.00
38197;BME280;26543;51.976;4.616;2023-04-28T03:46:48;52766.25;;;-140.72;0.00
38197;BME280;26543;51.976;4.616;2023-04-28T03:49:13;52760.19;;;-140.72;0.00
38197;BME280;26543;51.976;4.616;2023-04-28T03:51:38;52750.03;;;-140.72;0.00
38197;BME280;26543;51.976;4.616;2023-04-28T03:54:03;52741.91;;;-140.72;0.00
38197;BME280;26543;51.976;4.616;2023-04-28T03:56:29;52752.06;;;-140.72;0.00
38197;BME280;26543;51.976;4.616;2023-04-28T03:58:54;52733.78;;;-140.72;0.00
38197;BME280;26543;51.976;4.616;2023-04-28T04:01:19;52774.38;;;-140.72;0.00
38197;BME280;26543;51.976;4.616;2023-04-28T04:03:44;52741.91;;;-140.72;0.00
38197;BME280;26543;51.976;4.616;2023-04-28T04:06:10;52739.88;;;-140.72;0.00
38197;BME280;26543;51.976;4.616;2023-04-28T04:08:35;52750.03;;;-140.72;0.00
38197;BME280;26543;51.976;4.616;2023-04-28T04:11:00;52750.03;;;-140.72;0.00
38197;BME280;26543;51.976;4.616;2023-04-28T04:13:26;52768.28;;;-140.72;0.00
38197;BME280;26543;51.976;4.616;2023-04-28T04:15:51;52764.25;;;-140.72;0.00
38197;BME280;26543;51.976;4.616;2023-04-28T04:18:17;52689.16;;;-140.72;0.00
38197;BME280;26543;51.976;4.616;2023-04-28T04:20:42;52739.88;;;-140.72;0.00
38197;BME280;26543;51.976;4.616;2023-04-28T04:23:07;52743.94;;;-140.72;0.00
38197;BME280;26543;51.976;4.616;2023-04-28T04:25:32;52782.50;;;-140.72;0.00
38197;BME280;26543;51.976;4.616;2023-04-28T04:27:58;52780.47;;;-140.72;0.00
38197;BME280;26543;51.976;4.616;2023-04-28T04:30:23;52794.69;;;-140.72;0.00
38197;BME280;26543;51.976;4.616;2023-04-28T04:32:49;52737.84;;;-140.72;0.00
38197;BME280;26543;51.976;4.616;2023-04-28T04:35:14;52758.16;;;-140.72;0.00
38197;BME280;26543;51.976;4.616;2023-04-28T04:37:39;52741.91;;;-140.72;0.00
38197;BME280;26543;51.976;4.616;2023-04-28T04:40:05;52808.88;;;-140.72;0.00
38197;BME280;26543;51.976;4.616;2023-04-28T04:42:30;52748.00;;;-140.72;0.00
38197;BME280;26543;51.976;4.616;2023-04-28T04:44:55;52792.66;;;-140.72;0.00
38197;BME280;26543;51.976;4.616;2023-04-28T04:47:21;52752.06;;;-140.72;0.00
38197;BME280;26543;51.976;4.616;2023-04-28T04:49:47;52784.53;;;-140.72;0.00
38197;BME280;26543;51.976;4.616;2023-04-28T04:52:13;52778.44;;;-140.72;2.60
38197;BME280;26543;51.976;4.616;2023-04-28T04:54:38;52743.94;;;-140.72;36.21
38197;BME280;26543;51.976;4.616;2023-04-28T04:57:03;52745.97;;;-140.72;65.06
38197;BME280;26543;51.976;4.616;2023-04-28T04:59:28;52768.28;;;-140.72;100.00
38197;BME280;26543;51.976;4.616;2023-04-28T05:01:54;52764.25;;;-140.72;100.00
38197;BME280;26543;51.976;4.616;2023-04-28T05:04:19;52735.81;;;-140.72;100.00
38197;BME280;26543;51.976;4.616;2023-04-28T05:06:44;52776.41;;;-140.72;100.00
38197;BME280;26543;51.976;4.616;2023-04-28T05:09:10;52780.47;;;-140.72;100.00
38197;BME280;26543;51.976;4.616;2023-04-28T05:11:35;52774.38;;;-140.72;100.00
38197;BME280;26543;51.976;4.616;2023-04-28T05:14:00;52776.41;;;-140.72;100.00
38197;BME280;26543;51.976;4.616;2023-04-28T05:16:25;52748.00;;;-140.72;100.00
38197;BME280;26543;51.976;4.616;2023-04-28T05:18:51;52774.38;;;-140.72;100.00
38197;BME280;26543;51.976;4.616;2023-04-28T05:21:17;52760.19;;;-140.72;100.00
38197;BME280;26543;51.976;4.616;2023-04-28T05:23:42;52741.91;;;-140.72;100.00
38197;BME280;26543;51.976;4.616;2023-04-28T05:26:07;52794.69;;;-140.72;100.00
38197;BME280;26543;51.976;4.616;2023-04-28T05:28:32;52788.59;;;-140.72;100.00
38197;BME280;26543;51.976;4.616;2023-04-28T05:30:58;52756.13;;;-140.72;100.00
38197;BME280;26543;51.976;4.616;2023-04-28T05:33:23;52778.44;;;-140.72;100.00
38197;BME280;26543;51.976;4.616;2023-04-28T05:35:48;52774.38;;;-140.72;100.00
38197;BME280;26543;51.976;4.616;2023-04-28T05:38:13;52798.72;;;-140.72;100.00
38197;BME280;26543;51.976;4.616;2023-04-28T05:40:39;52792.66;;;-140.72;100.00
38197;BME280;26543;51.976;4.616;2023-04-28T05:43:04;52817.00;;;-140.72;100.00
38197;BME280;26543;51.976;4.616;2023-04-28T05:45:29;52756.13;;;-140.72;100.00
38197;BME280;26543;51.976;4.616;2023-04-28T05:47:54;52780.47;;;-140.72;100.00
38197;BME280;26543;51.976;4.616;2023-04-28T05:50:20;52758.16;;;-140.72;100.00
38197;BME280;26543;51.976;4.616;2023-04-28T05:52:45;52760.19;;;-140.72;100.00
38197;BME280;26543;51.976;4.616;2023-04-28T05:55:11;52784.53;;;-140.72;100.00
38197;BME280;26543;51.976;4.616;2023-04-28T05:57:36;52752.06;;;-140.72;100.00
38197;BME280;26543;51.976;4.616;2023-04-28T06:00:01;52752.06;;;-140.72;100.00
38197;BME280;26543;51.976;4.616;2023-04-28T06:02:27;52764.25;;;-140.72;100.00
38197;BME280;26543;51.976;4.616;2023-04-28T06:04:52;52768.28;;;-140.72;100.00
38197;BME280;26543;51.976;4.616;2023-04-28T06:07:17;52770.31;;;-140.72;100.00
38197;BME280;26543;51.976;4.616;2023-04-28T06:09:42;52780.47;;;-140.72;100.00
38197;BME280;26543;51.976;4.616;2023-04-28T06:12:07;52758.16;;;-140.72;100.00
38197;BME280;26543;51.976;4.616;2023-04-28T06:14:33;52760.19;;;-140.72;100.00
38197;BME280;26543;51.976;4.616;2023-04-28T06:17:00;52745.97;;;-140.72;100.00
38197;BME280;26543;51.976;4.616;2023-04-28T06:19:25;52739.88;;;-140.72;100.00
38197;BME280;26543;51.976;4.616;2023-04-28T06:21:50;52752.06;;;-140.72;100.00
38197;BME280;26543;51.976;4.616;2023-04-28T06:24:17;52756.13;;;-140.72;100.00
38197;BME280;26543;51.976;4.616;2023-04-28T06:26:42;52778.44;;;-140.72;100.00
38197;BME280;26543;51.976;4.616;2023-04-28T06:29:07;52786.56;;;-140.72;100.00
38197;BME280;26543;51.976;4.616;2023-04-28T06:31:32;52715.53;;;-140.72;100.00
38197;BME280;26543;51.976;4.616;2023-04-28T06:33:57;52810.91;;;-140.72;100.00
38197;BME280;26543;51.976;4.616;2023-04-28T06:36:23;52772.34;;;-140.72;100.00
38197;BME280;26543;51.976;4.616;2023-04-28T06:38:48;52737.84;;;-140.72;100.00
38197;BME280;26543;51.976;4.616;2023-04-28T06:41:13;52743.94;;;-140.72;100.00
38197;BME280;26543;51.976;4.616;2023-04-28T06:43:38;52733.78;;;-140.72;100.00
38197;BME280;26543;51.976;4.616;2023-04-28T06:46:04;52739.88;;;-140.72;100.00
38197;BME280;26543;51.976;4.616;2023-04-28T06:48:29;52752.06;;;-140.72;100.00
38197;BME280;26543;51.976;4.616;2023-04-28T06:50:55;52780.47;;;-140.72;100.00
38197;BME280;26543;51.976;4.616;2023-04-28T06:53:20;52748.00;;;-140.72;100.00
38197;BME280;26543;51.976;4.616;2023-04-28T06:55:45;52772.34;;;-140.72;100.00
38197;BME280;26543;51.976;4.616;2023-04-28T06:58:10;52772.34;;;-140.72;100.00
38197;BME280;26543;51.976;4.616;2023-04-28T07:00:36;52756.13;;;-140.72;100.00
38197;BME280;26543;51.976;4.616;2023-04-28T07:03:01;52756.13;;;-140.72;100.00
38197;BME280;26543;51.976;4.616;2023-04-28T07:05:26;52737.84;;;-140.72;100.00
38197;BME280;26543;51.976;4.616;2023-04-28T07:07:52;52745.97;;;-140.72;100.00
38197;BME280;26543;51.976;4.616;2023-04-28T07:10:18;52776.41;;;-140.72;100.00
38197;BME280;26543;51.976;4.616;2023-04-28T07:12:43;52729.75;;;-140.72;100.00
38197;BME280;26543;51.976;4.616;2023-04-28T07:15:08;52731.75;;;-140.72;100.00
38197;BME280;26543;51.976;4.616;2023-04-28T07:17:34;52768.28;;;-140.72;100.00
38197;BME280;26543;51.976;4.616;2023-04-28T07:19:59;52796.72;;;-140.72;100.00
38197;BME280;26543;51.976;4.616;2023-04-28T07:22:25;52770.31;;;-140.72;100.00
38197;BME280;26543;51.976;4.616;2023-04-28T07:24:51;52808.88;;;-140.72;100.00
38197;BME280;26543;51.976;4.616;2023-04-28T07:27:16;52784.53;;;-140.72;100.00
38197;BME280;26543;51.976;4.616;2023-04-28T07:29:43;52774.38;;;-140.72;100.00
38197;BME280;26543;51.976;4.616;2023-04-28T07:32:08;52768.28;;;-140.72;100.00
38197;BME280;26543;51.976;4.616;2023-04-28T07:34:34;52750.03;;;-140.72;100.00
38197;BME280;26543;51.976;4.616;2023-04-28T07:37:00;52750.03;;;-140.72;100.00
38197;BME280;26543;51.976;4.616;2023-04-28T07:39:25;52745.97;;;-140.72;100.00
38197;BME280;26543;51.976;4.616;2023-04-28T07:41:51;52743.94;;;-140.72;100.00
38197;BME280;26543;51.976;4.616;2023-04-28T07:44:16;52748.00;;;-140.72;100.00
38197;BME280;26543;51.976;4.616;2023-04-28T07:46:41;52737.84;;;-140.72;100.00
38197;BME280;26543;51.976;4.616;2023-04-28T07:49:06;52711.47;;;-140.72;100.00
38197;BME280;26543;51.976;4.616;2023-04-28T07:51:32;52725.69;;;-140.72;100.00
38197;BME280;26543;51.976;4.616;2023-04-28T07:53:57;52752.06;;;-140.72;100.00
38197;BME280;26543;51.976;4.616;2023-04-28T07:59:08;52739.88;;;-140.72;100.00
38197;BME280;26543;51.976;4.616;2023-04-28T08:01:33;52745.97;;;-140.72;100.00
38197;BME280;26543;51.976;4.616;2023-04-28T08:03:59;52741.91;;;-140.72;100.00
38197;BME280;26543;51.976;4.616;2023-04-28T08:06:24;52697.28;;;-140.72;100.00
38197;BME280;26543;51.976;4.616;2023-04-28T08:08:49;52725.69;;;-140.72;100.00
38197;BME280;26543;51.976;4.616;2023-04-28T08:11:14;52711.47;;;-140.72;100.00
38197;BME280;26543;51.976;4.616;2023-04-28T08:13:40;52709.44;;;-140.72;100.00
38197;BME280;26543;51.976;4.616;2023-04-28T08:16:06;52691.19;;;-140.72;100.00
38197;BME280;26543;51.976;4.616;2023-04-28T08:18:34;52711.47;;;-140.72;100.00
38197;BME280;26543;51.976;4.616;2023-04-28T08:20:59;52721.63;;;-140.72;100.00
38197;BME280;26543;51.976;4.616;2023-04-28T08:23:25;52748.00;;;-140.72;100.00
38197;BME280;26543;51.976;4.616;2023-04-28T08:25:52;52709.44;;;-140.72;100.00
38197;BME280;26543;51.976;4.616;2023-04-28T08:28:17;52729.75;;;-140.72;100.00
38197;BME280;26543;51.976;4.616;2023-04-28T08:30:42;52717.56;;;-140.72;100.00
38197;BME280;26543;51.976;4.616;2023-04-28T08:33:08;52748.00;;;-140.72;100.00
38197;BME280;26543;51.976;4.616;2023-04-28T08:35:33;52715.53;;;-140.72;100.00
38197;BME280;26543;51.976;4.616;2023-04-28T08:37:58;52713.50;;;-140.72;100.00
38197;BME280;26543;51.976;4.616;2023-04-28T08:40:23;52703.34;;;-140.72;100.00
38197;BME280;26543;51.976;4.616;2023-04-28T08:42:50;52695.25;;;-140.72;100.00
38197;BME280;26543;51.976;4.616;2023-04-28T08:45:16;52715.53;;;-140.72;100.00
38197;BME280;26543;51.976;4.616;2023-04-28T08:47:41;52754.09;;;-140.72;100.00
38197;BME280;26543;51.976;4.616;2023-04-28T08:50:10;52691.19;;;-140.72;100.00
38197;BME280;26543;51.976;4.616;2023-04-28T08:52:36;52693.22;;;-140.72;100.00
38197;BME280;26543;51.976;4.616;2023-04-28T08:55:06;52729.75;;;-140.72;100.00
38197;BME280;26543;51.976;4.616;2023-04-28T08:57:34;52713.50;;;-140.72;100.00
38197;BME280;26543;51.976;4.616;2023-04-28T09:00:00;52715.53;;;-140.72;100.00
38197;BME280;26543;51.976;4.616;2023-04-28T09:02:25;52691.19;;;-140.72;100.00
38197;BME280;26543;51.976;4.616;2023-04-28T09:04:50;52644.50;;;-140.72;100.00
38197;BME280;26543;51.976;4.616;2023-04-28T09:07:16;52658.72;;;-140.72;100.00
38197;BME280;26543;51.976;4.616;2023-04-28T09:09:41;52711.47;;;-140.72;100.00
38197;BME280;26543;51.976;4.616;2023-04-28T09:12:06;52683.06;;;-140.72;100.00
38197;BME280;26543;51.976;4.616;2023-04-28T09:14:32;52679.00;;;-140.72;100.00
38197;BME280;26543;51.976;4.616;2023-04-28T09:16:58;52674.94;;;-140.72;100.00
38197;BME280;26543;51.976;4.616;2023-04-28T09:19:24;52636.38;;;-140.72;100.00
38197;BME280;26543;51.976;4.616;2023-04-28T09:21:57;52691.19;;;-140.72;100.00
38197;BME280;26543;51.976;4.616;2023-04-28T09:24:29;52640.44;;;-140.72;100.00
38197;BME280;26543;51.976;4.616;2023-04-28T09:26:58;52689.16;;;-140.72;100.00
38197;BME280;26543;51.976;4.616;2023-04-28T09:29:23;52689.16;;;-140.72;100.00
38197;BME280;26543;51.976;4.616;2023-04-28T09:31:49;52674.94;;;-140.72;100.00
38197;BME280;26543;51.976;4.616;2023-04-28T09:34:14;52638.41;;;-140.72;100.00
38197;BME280;26543;51.976;4.616;2023-04-28T09:36:39;52648.56;;;-140.72;100.00
38197;BME280;26543;51.976;4.616;2023-04-28T09:39:04;52646.53;;;-140.72;100.00
38197;BME280;26543;51.976;4.616;2023-04-28T09:41:40;52644.50;;;-140.72;100.00
38197;BME280;26543;51.976;4.616;2023-04-28T09:44:09;52664.81;;;-140.72;100.00
38197;BME280;26543;51.976;4.616;2023-04-28T09:46:34;52618.13;;;-140.72;100.00
38197;BME280;26543;51.976;4.616;2023-04-28T09:49:00;52620.16;;;-140.72;100.00
38197;BME280;26543;51.976;4.616;2023-04-28T09:51:26;52630.31;;;-140.72;100.00
38197;BME280;26543;51.976;4.616;2023-04-28T09:53:51;52656.69;;;-140.72;100.00
38197;BME280;26543;51.976;4.616;2023-04-28T09:56:18;52622.19;;;-140.72;100.00
38197;BME280;26543;51.976;4.616;2023-04-28T09:58:45;52668.84;;;-140.72;100.00
38197;BME280;26543;51.976;4.616;2023-04-28T10:01:31;52642.47;;;-140.72;100.00
38197;BME280;26543;51.976;4.616;2023-04-28T10:03:57;52624.22;;;-140.72;100.00
38197;BME280;26543;51.976;4.616;2023-04-28T10:06:24;52599.88;;;-140.72;100.00
38197;BME280;26543;51.976;4.616;2023-04-28T10:08:49;52630.31;;;-140.72;100.00
38197;BME280;26543;51.976;4.616;2023-04-28T10:11:15;52622.19;;;-140.72;100.00
38197;BME280;26543;51.976;4.616;2023-04-28T10:13:41;52662.78;;;-140.72;100.00
38197;BME280;26543;51.976;4.616;2023-04-28T10:19:00;52654.66;;;-140.72;100.00
38197;BME280;26543;51.976;4.616;2023-04-28T10:21:26;52679.00;;;-140.72;100.00
38197;BME280;26543;51.976;4.616;2023-04-28T10:27:01;52654.66;;;-140.72;100.00
38197;BME280;26543;51.976;4.616;2023-04-28T10:29:28;52620.16;;;-140.72;100.00
38197;BME280;26543;51.976;4.616;2023-04-28T10:34:38;52670.88;;;-140.72;100.00
38197;BME280;26543;51.976;4.616;2023-04-28T10:37:04;52676.97;;;-140.72;100.00
38197;BME280;26543;51.976;4.616;2023-04-28T10:39:29;52668.84;;;-140.72;100.00
38197;BME280;26543;51.976;4.616;2023-04-28T10:41:54;52670.88;;;-140.72;100.00
38197;BME280;26543;51.976;4.616;2023-04-28T10:47:00;52656.69;;;-140.72;100.00
38197;BME280;26543;51.976;4.616;2023-04-28T11:00:40;52707.41;;;-140.72;100.00
38197;BME280;26543;51.976;4.616;2023-04-28T11:03:05;52695.25;;;-140.72;100.00
38197;BME280;26543;51.976;4.616;2023-04-28T11:05:30;52676.97;;;-140.72;100.00
38197;BME280;26543;51.976;4.616;2023-04-28T11:13:28;52679.00;;;-140.72;100.00
38197;BME280;26543;51.976;4.616;2023-04-28T11:16:04;52658.72;;;-140.72;100.00
38197;BME280;26543;51.976;4.616;2023-04-28T11:18:32;52697.28;;;-140.72;100.00
38197;BME280;26543;51.976;4.616;2023-04-28T11:21:06;52703.34;;;-140.72;100.00
38197;BME280;26543;51.976;4.616;2023-04-28T11:23:32;52674.94;;;-140.72;100.00
38197;BME280;26543;51.976;4.616;2023-04-28T11:25:57;52689.16;;;-140.72;100.00
38197;BME280;26543;51.976;4.616;2023-04-28T11:28:23;52650.59;;;-140.72;100.00
38197;BME280;26543;51.976;4.616;2023-04-28T11:30:48;52693.22;;;-140.72;100.00
38197;BME280;26543;51.976;4.616;2023-04-28T11:33:13;52709.44;;;-140.72;100.00
38197;BME280;26543;51.976;4.616;2023-04-28T11:35:40;52672.91;;;-140.72;100.00
38197;BME280;26543;51.976;4.616;2023-04-28T11:38:05;52727.72;;;-140.72;100.00
38197;BME280;26543;51.976;4.616;2023-04-28T11:40:30;52658.72;;;-140.72;100.00
38197;BME280;26543;51.976;4.616;2023-04-28T11:42:56;52685.09;;;-140.72;100.00
38197;BME280;26543;51.976;4.616;2023-04-28T11:45:23;52616.09;;;-140.72;100.00
38197;BME280;26543;51.976;4.616;2023-04-28T11:47:48;52642.47;;;-140.72;100.00
38197;BME280;26543;51.976;4.616;2023-04-28T11:50:14;52676.97;;;-140.72;100.00
38197;BME280;26543;51.976;4.616;2023-04-28T11:52:49;52646.53;;;-140.72;100.00
38197;BME280;26543;51.976;4.616;2023-04-28T11:55:15;52650.59;;;-140.72;100.00
38197;BME280;26543;51.976;4.616;2023-04-28T11:57:41;52683.06;;;-140.72;100.00
38197;BME280;26543;51.976;4.616;2023-04-28T12:00:12;52610.00;;;-140.72;100.00
38197;BME280;26543;51.976;4.616;2023-04-28T12:02:38;52632.34;;;-140.72;100.00
38197;BME280;26543;51.976;4.616;2023-04-28T12:05:07;52662.78;;;-140.72;100.00
38197;BME280;26543;51.976;4.616;2023-04-28T12:07:42;52622.19;;;-140.72;100.00
38197;BME280;26543;51.976;4.616;2023-04-28T12:10:14;52679.00;;;-140.72;100.00
38197;BME280;26543;51.976;4.616;2023-04-28T12:12:40;52668.84;;;-140.72;100.00
38197;BME280;26543;51.976;4.616;2023-04-28T12:15:06;52685.09;;;-140.72;100.00
38197;BME280;26543;51.976;4.616;2023-04-28T12:17:33;52687.13;;;-140.72;100.00
38197;BME280;26543;51.976;4.616;2023-04-28T12:19:59;52658.72;;;-140.72;100.00
38197;BME280;26543;51.976;4.616;2023-04-28T12:22:25;52672.91;;;-140.72;100.00
38197;BME280;26543;51.976;4.616;2023-04-28T12:25:06;52683.06;;;-140.72;100.00
38197;BME280;26543;51.976;4.616;2023-04-28T12:27:32;52650.59;;;-140.72;100.00
38197;BME280;26543;51.976;4.616;2023-04-28T12:29:57;52711.47;;;-140.72;100.00
38197;BME280;26543;51.976;4.616;2023-04-28T12:32:41;52674.94;;;-140.72;100.00
38197;BME280;26543;51.976;4.616;2023-04-28T12:35:09;52687.13;;;-140.72;100.00
38197;BME280;26543;51.976;4.616;2023-04-28T12:37:35;52676.97;;;-140.72;100.00
38197;BME280;26543;51.976;4.616;2023-04-28T12:40:02;52707.41;;;-140.72;100.00
38197;BME280;26543;51.976;4.616;2023-04-28T12:42:28;52658.72;;;-140.72;100.00
38197;BME280;26543;51.976;4.616;2023-04-28T12:44:53;52672.91;;;-140.72;100.00
38197;BME280;26543;51.976;4.616;2023-04-28T12:47:19;52693.22;;;-140.72;100.00
38197;BME280;26543;51.976;4.616;2023-04-28T12:49:44;52691.19;;;-140.72;100.00
38197;BME280;26543;51.976;4.616;2023-04-28T12:52:10;52666.84;;;-140.72;100.00
38197;BME280;26543;51.976;4.616;2023-04-28T12:54:35;52709.44;;;-140.72;100.00
38197;BME280;26543;51.976;4.616;2023-04-28T12:57:01;52666.84;;;-140.72;100.00
38197;BME280;26543;51.976;4.616;2023-04-28T12:59:27;52648.56;;;-140.72;100.00
38197;BME280;26543;51.976;4.616;2023-04-28T13:01:52;52672.91;;;-140.72;100.00